Time,TemperatureF,DewpointF,PressureIn,WindDirection,WindDirectionDegrees,WindSpeedMPH,WindSpeedGustMPH,Humidity,HourlyPrecipIn,Conditions,Clouds,dailyrainin,SoftwareType,DateUTC
2013-01-23 00:04:00,69.0,-99.9,30.22,NNE,26,23.0,28.0,-999,-99.99,,,-99.99,,2013-01-23 05:04:00,
2013-01-23 00:12:00,70.0,-99.9,30.22,NNE,24,22.0,27.0,-999,-99.99,,,-99.99,,2013-01-23 05:12:00,
2013-01-23 00:23:00,69.0,-99.9,30.22,NNE,29,23.0,27.0,-999,-99.99,,,-99.99,,2013-01-23 05:23:00,
2013-01-23 00:33:00,69.0,-99.9,30.22,NE,37,23.0,27.0,-999,-99.99,,,-99.99,,2013-01-23 05:33:00,
2013-01-23 00:43:00,69.0,-99.9,30.22,NE,37,22.0,26.0,-999,-99.99,,,-99.99,,2013-01-23 05:43:00,
2013-01-23 00:53:00,69.0,-99.9,30.22,NNE,29,21.0,27.0,-999,-99.99,,,-99.99,,2013-01-23 05:53:00,
2013-01-23 01:03:00,69.0,-99.9,30.22,NNE,30,21.0,26.0,-999,-99.99,,,-99.99,,2013-01-23 06:03:00,
2013-01-23 01:13:00,69.0,-99.9,30.22,NNE,31,22.0,25.0,-999,-99.99,,,-99.99,,2013-01-23 06:13:00,
2013-01-23 01:23:00,69.0,-99.9,30.22,NNE,26,21.0,25.0,-999,-99.99,,,-99.99,,2013-01-23 06:23:00,
2013-01-23 01:33:00,69.0,-99.9,30.22,NNE,26,21.0,25.0,-999,-99.99,,,-99.99,,2013-01-23 06:33:00,
2013-01-23 01:43:00,69.0,-99.9,30.22,NNE,21,21.0,24.0,-999,-99.99,,,-99.99,,2013-01-23 06:43:00,
2013-01-23 01:53:00,69.0,-99.9,30.22,NNE,22,19.0,25.0,-999,-99.99,,,-99.99,,2013-01-23 06:53:00,
2013-01-23 02:02:00,69.0,-99.9,30.22,NE,34,21.0,26.0,-999,-99.99,,,-99.99,,2013-01-23 07:02:00,
2013-01-23 02:13:00,69.0,-99.9,30.21,NE,39,19.0,24.0,-999,-99.99,,,-99.99,,2013-01-23 07:13:00,
2013-01-23 02:23:00,69.0,-99.9,30.21,NE,45,17.0,24.0,-999,-99.99,,,-99.99,,2013-01-23 07:23:00,
2013-01-23 02:33:00,69.0,-99.9,30.22,NNE,25,18.0,22.0,-999,-99.99,,,-99.99,,2013-01-23 07:33:00,
2013-01-23 02:43:00,69.0,-99.9,30.21,NNE,28,17.0,23.0,-999,-99.99,,,-99.99,,2013-01-23 07:43:00,
2013-01-23 02:53:00,69.0,-99.9,30.21,NE,34,18.0,23.0,-999,-99.99,,,-99.99,,2013-01-23 07:53:00,
2013-01-23 03:02:00,69.0,-99.9,30.22,NE,34,19.0,22.0,-999,-99.99,,,-99.99,,2013-01-23 08:02:00,
2013-01-23 03:13:00,69.0,-99.9,30.22,NNE,33,16.0,22.0,-999,-99.99,,,-99.99,,2013-01-23 08:13:00,
2013-01-23 03:23:00,69.0,-99.9,30.22,NE,40,17.0,23.0,-999,-99.99,,,-99.99,,2013-01-23 08:23:00,
2013-01-23 03:33:00,69.0,-99.9,30.21,NNE,30,17.0,21.0,-999,-99.99,,,-99.99,,2013-01-23 08:33:00,
2013-01-23 03:43:00,69.0,-99.9,30.22,NNE,33,18.0,21.0,-999,-99.99,,,-99.99,,2013-01-23 08:43:00,
2013-01-23 03:53:00,69.0,-99.9,30.22,NE,40,16.0,21.0,-999,-99.99,,,-99.99,,2013-01-23 08:53:00,
2013-01-23 04:03:00,69.0,-99.9,30.22,NNE,32,17.0,21.0,-999,-99.99,,,-99.99,,2013-01-23 09:03:00,
2013-01-23 04:12:00,69.0,-99.9,30.22,NE,39,17.0,20.0,-999,-99.99,,,-99.99,,2013-01-23 09:12:00,
2013-01-23 04:23:00,69.0,-99.9,30.22,NE,48,17.0,19.0,-999,-99.99,,,-99.99,,2013-01-23 09:23:00,
2013-01-23 04:33:00,69.0,-99.9,30.22,NNE,19,17.0,21.0,-999,-99.99,,,-99.99,,2013-01-23 09:33:00,
2013-01-23 04:44:00,69.0,-99.9,30.22,NNE,29,15.0,22.0,-999,-99.99,,,-99.99,,2013-01-23 09:44:00,
2013-01-23 04:53:00,69.0,-99.9,30.22,NNE,23,18.0,20.0,-999,-99.99,,,-99.99,,2013-01-23 09:53:00,
2013-01-23 05:03:00,69.0,-99.9,30.22,NE,34,14.0,21.0,-999,-99.99,,,-99.99,,2013-01-23 10:03:00,
2013-01-23 05:13:00,69.0,-99.9,30.21,NE,34,18.0,22.0,-999,-99.99,,,-99.99,,2013-01-23 10:13:00,
2013-01-23 05:23:00,69.0,-99.9,30.22,NE,37,13.0,21.0,-999,-99.99,,,-99.99,,2013-01-23 10:23:00,
2013-01-23 05:33:00,69.0,-99.9,30.22,NE,40,16.0,22.0,-999,-99.99,,,-99.99,,2013-01-23 10:33:00,
2013-01-23 05:43:00,69.0,-99.9,30.22,NE,38,17.0,20.0,-999,-99.99,,,-99.99,,2013-01-23 10:43:00,
2013-01-23 05:53:00,69.0,-99.9,30.22,NNE,23,19.0,21.0,-999,-99.99,,,-99.99,,2013-01-23 10:53:00,
2013-01-23 06:03:00,69.0,-99.9,30.22,NE,39,18.0,20.0,-999,-99.99,,,-99.99,,2013-01-23 11:03:00,
2013-01-23 06:12:00,69.0,-99.9,30.22,NE,39,16.0,19.0,-999,-99.99,,,-99.99,,2013-01-23 11:12:00,
2013-01-23 06:23:00,69.0,-99.9,30.22,NE,35,19.0,22.0,-999,-99.99,,,-99.99,,2013-01-23 11:23:00,
2013-01-23 06:34:00,69.0,-99.9,30.24,NNE,23,16.0,22.0,-999,-99.99,,,-99.99,,2013-01-23 11:34:00,
2013-01-23 06:43:00,69.0,-99.9,30.24,NE,36,17.0,19.0,-999,-99.99,,,-99.99,,2013-01-23 11:43:00,
2013-01-23 06:53:00,70.0,-99.9,30.24,NNE,33,17.0,20.0,-999,-99.99,,,-99.99,,2013-01-23 11:53:00,
2013-01-23 07:03:00,70.0,-99.9,30.24,NE,41,19.0,21.0,-999,-99.99,,,-99.99,,2013-01-23 12:03:00,
2013-01-23 07:13:00,69.0,-99.9,30.25,NNE,29,15.0,22.0,-999,-99.99,,,-99.99,,2013-01-23 12:13:00,
2013-01-23 07:23:00,69.0,-99.9,30.25,NNE,30,17.0,21.0,-999,-99.99,,,-99.99,,2013-01-23 12:23:00,
2013-01-23 07:33:00,69.0,-99.9,30.25,NNE,30,17.0,24.0,-999,-99.99,,,-99.99,,2013-01-23 12:33:00,
2013-01-23 07:43:00,69.0,-99.9,30.25,NE,35,16.0,21.0,-999,-99.99,,,-99.99,,2013-01-23 12:43:00,
2013-01-23 07:53:00,69.0,-99.9,30.26,NNE,20,14.0,19.0,-999,-99.99,,,-99.99,,2013-01-23 12:53:00,
2013-01-23 08:04:00,66.0,-99.9,30.26,NNW,344,6.0,14.0,-999,-99.99,,,-99.99,,2013-01-23 13:04:00,
2013-01-23 08:13:00,63.0,-99.9,30.26,NW,304,9.0,12.0,-999,-99.99,,,-99.99,,2013-01-23 13:13:00,
2013-01-23 08:23:00,63.0,-99.9,30.27,NW,317,10.0,14.0,-999,-99.99,,,-99.99,,2013-01-23 13:23:00,
2013-01-23 08:34:00,62.0,-99.9,30.27,NW,310,10.0,13.0,-999,-99.99,,,-99.99,,2013-01-23 13:34:00,
2013-01-23 08:43:00,63.0,-99.9,30.27,NW,316,12.0,14.0,-999,-99.99,,,-99.99,,2013-01-23 13:43:00,
2013-01-23 08:53:00,63.0,-99.9,30.28,NW,316,13.0,15.0,-999,-99.99,,,-99.99,,2013-01-23 13:53:00,
2013-01-23 09:03:00,63.0,-99.9,30.28,NW,325,12.0,14.0,-999,-99.99,,,-99.99,,2013-01-23 14:03:00,
2013-01-23 09:12:00,63.0,-99.9,30.29,NW,321,10.0,14.0,-999,-99.99,,,-99.99,,2013-01-23 14:12:00,
2013-01-23 09:24:00,64.0,-99.9,30.28,NNW,333,9.0,13.0,-999,-99.99,,,-99.99,,2013-01-23 14:24:00,
2013-01-23 09:33:00,64.0,-99.9,30.29,NNW,328,13.0,16.0,-999,-99.99,,,-99.99,,2013-01-23 14:33:00,
2013-01-23 09:43:00,64.0,-99.9,30.30,NW,318,10.0,14.0,-999,-99.99,,,-99.99,,2013-01-23 14:43:00,
2013-01-23 09:53:00,64.0,-99.9,30.30,NNW,329,12.0,14.0,-999,-99.99,,,-99.99,,2013-01-23 14:53:00,
2013-01-23 10:03:00,64.0,-99.9,30.30,NNW,334,11.0,14.0,-999,-99.99,,,-99.99,,2013-01-23 15:03:00,
2013-01-23 10:13:00,64.0,-99.9,30.30,NNW,330,11.0,15.0,-999,-99.99,,,-99.99,,2013-01-23 15:13:00,
2013-01-23 10:23:00,64.0,-99.9,30.30,NW,324,10.0,12.0,-999,-99.99,,,-99.99,,2013-01-23 15:23:00,
2013-01-23 10:33:00,65.0,-99.9,30.30,NW,324,11.0,14.0,-999,-99.99,,,-99.99,,2013-01-23 15:33:00,
2013-01-23 10:43:00,65.0,-99.9,30.30,NNW,332,10.0,12.0,-999,-99.99,,,-99.99,,2013-01-23 15:43:00,
2013-01-23 10:53:00,66.0,-99.9,30.30,NW,326,9.0,12.0,-999,-99.99,,,-99.99,,2013-01-23 15:53:00,
2013-01-23 11:03:00,67.0,-99.9,30.30,NNW,340,10.0,14.0,-999,-99.99,,,-99.99,,2013-01-23 16:03:00,
2013-01-23 11:12:00,68.0,-99.9,30.30,NNW,341,9.0,13.0,-999,-99.99,,,-99.99,,2013-01-23 16:12:00,
2013-01-23 11:23:00,69.0,-99.9,30.30,NNW,332,9.0,12.0,-999,-99.99,,,-99.99,,2013-01-23 16:23:00,
2013-01-23 11:33:00,70.0,-99.9,30.30,NNE,31,16.0,19.0,-999,-99.99,,,-99.99,,2013-01-23 16:33:00,
2013-01-23 11:43:00,71.0,-99.9,30.30,NNE,24,14.0,18.0,-999,-99.99,,,-99.99,,2013-01-23 16:43:00,
2013-01-23 11:53:00,70.0,-99.9,30.29,NNE,30,16.0,20.0,-999,-99.99,,,-99.99,,2013-01-23 16:53:00,
2013-01-23 12:03:00,70.0,-99.9,30.29,NE,38,15.0,18.0,-999,-99.99,,,-99.99,,2013-01-23 17:03:00,
2013-01-23 12:13:00,71.0,-99.9,30.29,NNE,30,14.0,17.0,-999,-99.99,,,-99.99,,2013-01-23 17:13:00,
2013-01-23 12:23:00,70.0,-99.9,30.28,NNE,26,13.0,15.0,-999,-99.99,,,-99.99,,2013-01-23 17:23:00,
2013-01-23 12:34:00,70.0,-99.9,30.28,NE,46,12.0,17.0,-999,-99.99,,,-99.99,,2013-01-23 17:34:00,
2013-01-23 12:43:00,70.0,-99.9,30.28,NE,34,12.0,18.0,-999,-99.99,,,-99.99,,2013-01-23 17:43:00,
2013-01-23 12:53:00,70.0,-99.9,30.28,NNE,20,15.0,18.0,-999,-99.99,,,-99.99,,2013-01-23 17:53:00,
2013-01-23 13:04:00,70.0,-99.9,30.27,NE,43,11.0,15.0,-999,-99.99,,,-99.99,,2013-01-23 18:04:00,
2013-01-23 13:13:00,70.0,-99.9,30.27,NE,41,16.0,21.0,-999,-99.99,,,-99.99,,2013-01-23 18:13:00,
2013-01-23 13:24:00,70.0,-99.9,30.26,NE,44,12.0,18.0,-999,-99.99,,,-99.99,,2013-01-23 18:24:00,
2013-01-23 13:33:00,70.0,-99.9,30.26,NE,44,12.0,18.0,-999,-99.99,,,-99.99,,2013-01-23 18:33:00,
2013-01-23 13:44:00,70.0,-99.9,30.25,NE,36,17.0,19.0,-999,-99.99,,,-99.99,,2013-01-23 18:44:00,
2013-01-23 13:53:00,70.0,-99.9,30.25,NE,44,11.0,18.0,-999,-99.99,,,-99.99,,2013-01-23 18:53:00,
2013-01-23 14:03:00,70.0,-99.9,30.25,NE,44,11.0,18.0,-999,-99.99,,,-99.99,,2013-01-23 19:03:00,
2013-01-23 14:13:00,70.0,-99.9,30.25,NE,42,12.0,15.0,-999,-99.99,,,-99.99,,2013-01-23 19:13:00,
2013-01-23 14:23:00,71.0,-99.9,30.24,ENE,68,12.0,15.0,-999,-99.99,,,-99.99,,2013-01-23 19:23:00,
2013-01-23 14:33:00,71.0,-99.9,30.24,NE,50,12.0,14.0,-999,-99.99,,,-99.99,,2013-01-23 19:33:00,
2013-01-23 14:43:00,70.0,-99.9,30.24,ENE,58,14.0,17.0,-999,-99.99,,,-99.99,,2013-01-23 19:43:00,
2013-01-23 14:53:00,70.0,-99.9,30.24,NE,40,12.0,16.0,-999,-99.99,,,-99.99,,2013-01-23 19:53:00,
2013-01-23 15:03:00,70.0,-99.9,30.24,NE,40,13.0,16.0,-999,-99.99,,,-99.99,,2013-01-23 20:03:00,
2013-01-23 15:13:00,70.0,-99.9,30.24,NE,37,12.0,15.0,-999,-99.99,,,-99.99,,2013-01-23 20:13:00,
2013-01-23 15:23:00,70.0,-99.9,30.24,NNE,31,12.0,16.0,-999,-99.99,,,-99.99,,2013-01-23 20:23:00,
2013-01-23 15:33:00,71.0,-99.9,30.24,NE,42,12.0,16.0,-999,-99.99,,,-99.99,,2013-01-23 20:33:00,
2013-01-23 15:43:00,70.0,-99.9,30.24,NE,51,13.0,16.0,-999,-99.99,,,-99.99,,2013-01-23 20:43:00,
2013-01-23 15:54:00,70.0,-99.9,30.24,NE,44,15.0,18.0,-999,-99.99,,,-99.99,,2013-01-23 20:54:00,
2013-01-23 16:03:00,71.0,-99.9,30.24,NNE,23,11.0,15.0,-999,-99.99,,,-99.99,,2013-01-23 21:03:00,
2013-01-23 16:12:00,71.0,-99.9,30.24,NNE,28,12.0,14.0,-999,-99.99,,,-99.99,,2013-01-23 21:12:00,
2013-01-23 16:23:00,70.0,-99.9,30.24,NE,50,13.0,18.0,-999,-99.99,,,-99.99,,2013-01-23 21:23:00,
2013-01-23 16:34:00,70.0,-99.9,30.24,NE,50,13.0,18.0,-999,-99.99,,,-99.99,,2013-01-23 21:34:00,
2013-01-23 16:43:00,70.0,-99.9,30.25,NE,44,12.0,15.0,-999,-99.99,,,-99.99,,2013-01-23 21:43:00,
2013-01-23 16:53:00,70.0,-99.9,30.25,ENE,61,11.0,15.0,-999,-99.99,,,-99.99,,2013-01-23 21:53:00,
2013-01-23 17:03:00,71.0,-99.9,30.25,NE,53,16.0,18.0,-999,-99.99,,,-99.99,,2013-01-23 22:03:00,
2013-01-23 17:13:00,70.0,-99.9,30.25,NNE,26,11.0,16.0,-999,-99.99,,,-99.99,,2013-01-23 22:13:00,
2013-01-23 17:23:00,71.0,-99.9,30.26,NE,50,11.0,14.0,-999,-99.99,,,-99.99,,2013-01-23 22:23:00,
2013-01-23 17:33:00,70.0,-99.9,30.25,NNE,32,14.0,17.0,-999,-99.99,,,-99.99,,2013-01-23 22:33:00,
2013-01-23 17:43:00,71.0,-99.9,30.26,NE,43,9.0,16.0,-999,-99.99,,,-99.99,,2013-01-23 22:43:00,
2013-01-23 17:53:00,70.0,-99.9,30.25,NE,35,11.0,14.0,-999,-99.99,,,-99.99,,2013-01-23 22:53:00,
2013-01-23 18:03:00,70.0,-99.9,30.25,NE,38,11.0,16.0,-999,-99.99,,,-99.99,,2013-01-23 23:03:00,
2013-01-23 18:13:00,70.0,-99.9,30.25,NE,45,15.0,16.0,-999,-99.99,,,-99.99,,2013-01-23 23:13:00,
2013-01-23 18:23:00,70.0,-99.9,30.25,NE,39,13.0,17.0,-999,-99.99,,,-99.99,,2013-01-23 23:23:00,
2013-01-23 18:33:00,70.0,-99.9,30.25,NE,39,11.0,15.0,-999,-99.99,,,-99.99,,2013-01-23 23:33:00,
2013-01-23 18:43:00,70.0,-99.9,30.25,NE,34,12.0,15.0,-999,-99.99,,,-99.99,,2013-01-23 23:43:00,
2013-01-23 18:53:00,70.0,-99.9,30.25,NE,48,10.0,15.0,-999,-99.99,,,-99.99,,2013-01-23 23:53:00,
2013-01-23 19:03:00,70.0,-99.9,30.25,NNW,348,12.0,17.0,-999,-99.99,,,-99.99,,2013-01-24 00:03:00,
2013-01-23 19:12:00,68.0,-99.9,30.25,NNW,333,10.0,13.0,-999,-99.99,,,-99.99,,2013-01-24 00:12:00,
2013-01-23 19:22:00,68.0,-99.9,30.26,NNW,332,10.0,13.0,-999,-99.99,,,-99.99,,2013-01-24 00:22:00,
2013-01-23 19:33:00,67.0,-99.9,30.26,NNW,336,10.0,14.0,-999,-99.99,,,-99.99,,2013-01-24 00:33:00,
2013-01-23 19:43:00,67.0,-99.9,30.27,NNW,327,8.0,15.0,-999,-99.99,,,-99.99,,2013-01-24 00:43:00,
2013-01-23 19:53:00,67.0,-99.9,30.27,NW,317,9.0,12.0,-999,-99.99,,,-99.99,,2013-01-24 00:53:00,
2013-01-23 20:03:00,66.0,-99.9,30.27,NW,315,9.0,13.0,-999,-99.99,,,-99.99,,2013-01-24 01:03:00,
2013-01-23 20:12:00,66.0,-99.9,30.27,NW,311,10.0,13.0,-999,-99.99,,,-99.99,,2013-01-24 01:12:00,
2013-01-23 20:23:00,66.0,-99.9,30.28,NNW,328,11.0,14.0,-999,-99.99,,,-99.99,,2013-01-24 01:23:00,
2013-01-23 20:33:00,65.0,-99.9,30.28,NNW,328,10.0,14.0,-999,-99.99,,,-99.99,,2013-01-24 01:33:00,
2013-01-23 20:43:00,65.0,-99.9,30.28,NW,321,10.0,14.0,-999,-99.99,,,-99.99,,2013-01-24 01:43:00,
2013-01-23 20:53:00,65.0,-99.9,30.28,NW,319,13.0,16.0,-999,-99.99,,,-99.99,,2013-01-24 01:53:00,
2013-01-23 21:03:00,65.0,-99.9,30.28,NW,324,11.0,13.0,-999,-99.99,,,-99.99,,2013-01-24 02:03:00,
2013-01-23 21:12:00,65.0,-99.9,30.28,NW,324,12.0,14.0,-999,-99.99,,,-99.99,,2013-01-24 02:12:00,
2013-01-23 21:23:00,65.0,-99.9,30.29,NW,319,10.0,13.0,-999,-99.99,,,-99.99,,2013-01-24 02:23:00,
2013-01-23 21:33:00,64.0,-99.9,30.28,NW,319,11.0,13.0,-999,-99.99,,,-99.99,,2013-01-24 02:33:00,
2013-01-23 21:43:00,64.0,-99.9,30.28,NW,319,11.0,13.0,-999,-99.99,,,-99.99,,2013-01-24 02:43:00,
2013-01-23 21:53:00,64.0,-99.9,30.28,NW,319,11.0,13.0,-999,-99.99,,,-99.99,,2013-01-24 02:53:00,
2013-01-23 22:03:00,64.0,-99.9,30.28,NW,320,11.0,13.0,-999,-99.99,,,-99.99,,2013-01-24 03:03:00,
2013-01-23 22:12:00,64.0,-99.9,30.28,NW,318,10.0,13.0,-999,-99.99,,,-99.99,,2013-01-24 03:12:00,
2013-01-23 22:22:00,64.0,-99.9,30.29,NW,319,9.0,13.0,-999,-99.99,,,-99.99,,2013-01-24 03:22:00,
2013-01-23 22:33:00,64.0,-99.9,30.29,NW,316,9.0,12.0,-999,-99.99,,,-99.99,,2013-01-24 03:33:00,
2013-01-23 22:43:00,64.0,-99.9,30.29,NW,312,10.0,13.0,-999,-99.99,,,-99.99,,2013-01-24 03:43:00,
2013-01-23 22:53:00,64.0,-99.9,30.29,NW,320,10.0,13.0,-999,-99.99,,,-99.99,,2013-01-24 03:53:00,
2013-01-23 23:03:00,64.0,-99.9,30.28,NW,309,11.0,14.0,-999,-99.99,,,-99.99,,2013-01-24 04:03:00,
2013-01-23 23:12:00,64.0,-99.9,30.28,NW,311,9.0,12.0,-999,-99.99,,,-99.99,,2013-01-24 04:12:00,
2013-01-23 23:22:00,63.0,-99.9,30.28,NW,316,9.0,12.0,-999,-99.99,,,-99.99,,2013-01-24 04:22:00,
2013-01-23 23:33:00,63.0,-99.9,30.27,NW,309,10.0,13.0,-999,-99.99,,,-99.99,,2013-01-24 04:33:00,
2013-01-23 23:43:00,63.0,-99.9,30.27,NW,305,8.0,11.0,-999,-99.99,,,-99.99,,2013-01-24 04:43:00,
2013-01-23 23:53:00,63.0,-99.9,30.27,NW,309,10.0,13.0,-999,-99.99,,,-99.99,,2013-01-24 04:53:00,